sensor_id;sensor_type;location;lat;lon;timestamp;temperature;humidity
31729;DHT22;18309;43.658;1.312;2024-03-07T00:00:34;8.90;99.90
31729;DHT22;18309;43.658;1.312;2024-03-07T00:03:00;8.80;99.90
31729;DHT22;18309;43.658;1.312;2024-03-07T00:05:26;8.80;99.90
31729;DHT22;18309;43.658;1.312;2024-03-07T00:07:53;8.80;99.90
31729;DHT22;18309;43.658;1.312;2024-03-07T00:10:18;8.80;99.90
31729;DHT22;18309;43.658;1.312;2024-03-07T00:12:47;8.80;99.90
31729;DHT22;18309;43.658;1.312;2024-03-07T00:15:14;8.70;99.90
31729;DHT22;18309;43.658;1.312;2024-03-07T00:17:40;8.70;99.90
31729;DHT22;18309;43.658;1.312;2024-03-07T00:20:07;8.70;99.90
31729;DHT22;18309;43.658;1.312;2024-03-07T00:22:43;8.70;99.90
31729;DHT22;18309;43.658;1.312;2024-03-07T00:25:09;8.70;99.90
31729;DHT22;18309;43.658;1.312;2024-03-07T00:27:35;8.60;99.90
31729;DHT22;18309;43.658;1.312;2024-03-07T00:30:02;8.60;99.90
31729;DHT22;18309;43.658;1.312;2024-03-07T00:32:28;8.60;99.90
31729;DHT22;18309;43.658;1.312;2024-03-07T00:34:55;8.60;99.90
31729;DHT22;18309;43.658;1.312;2024-03-07T00:37:22;8.60;99.90
31729;DHT22;18309;43.658;1.312;2024-03-07T00:39:50;8.60;99.90
31729;DHT22;18309;43.658;1.312;2024-03-07T00:42:16;8.50;99.90
31729;DHT22;18309;43.658;1.312;2024-03-07T00:44:42;8.50;99.90
31729;DHT22;18309;43.658;1.312;2024-03-07T00:47:08;8.50;99.90
31729;DHT22;18309;43.658;1.312;2024-03-07T00:49:34;8.50;99.90
31729;DHT22;18309;43.658;1.312;2024-03-07T00:52:00;8.50;99.90
31729;DHT22;18309;43.658;1.312;2024-03-07T00:54:26;8.50;99.90
31729;DHT22;18309;43.658;1.312;2024-03-07T00:56:51;8.50;99.90
31729;DHT22;18309;43.658;1.312;2024-03-07T00:59:17;8.50;99.90
31729;DHT22;18309;43.658;1.312;2024-03-07T01:01:43;8.40;99.90
31729;DHT22;18309;43.658;1.312;2024-03-07T01:04:09;8.40;99.90
31729;DHT22;18309;43.658;1.312;2024-03-07T01:06:35;8.40;99.90
31729;DHT22;18309;43.658;1.312;2024-03-07T01:09:04;8.30;99.90
31729;DHT22;18309;43.658;1.312;2024-03-07T01:11:30;8.30;99.90
31729;DHT22;18309;43.658;1.312;2024-03-07T01:13:56;8.30;99.90
31729;DHT22;18309;43.658;1.312;2024-03-07T01:16:22;8.30;99.90
31729;DHT22;18309;43.658;1.312;2024-03-07T01:18:48;8.20;99.90
31729;DHT22;18309;43.658;1.312;2024-03-07T01:21:14;8.20;99.90
31729;DHT22;18309;43.658;1.312;2024-03-07T01:23:41;8.20;99.90
31729;DHT22;18309;43.658;1.312;2024-03-07T01:26:06;8.20;99.90
31729;DHT22;18309;43.658;1.312;2024-03-07T01:28:33;8.10;99.90
31729;DHT22;18309;43.658;1.312;2024-03-07T01:30:59;8.10;99.90
31729;DHT22;18309;43.658;1.312;2024-03-07T01:33:25;8.10;99.90
31729;DHT22;18309;43.658;1.312;2024-03-07T01:35:51;8.10;99.90
31729;DHT22;18309;43.658;1.312;2024-03-07T01:38:17;8.00;99.90
31729;DHT22;18309;43.658;1.312;2024-03-07T01:40:43;8.00;99.90
31729;DHT22;18309;43.658;1.312;2024-03-07T01:43:09;8.00;99.90
31729;DHT22;18309;43.658;1.312;2024-03-07T01:45:36;7.90;99.90
31729;DHT22;18309;43.658;1.312;2024-03-07T01:48:04;7.90;99.90
31729;DHT22;18309;43.658;1.312;2024-03-07T01:50:30;7.90;99.90
31729;DHT22;18309;43.658;1.312;2024-03-07T01:52:56;7.90;99.90
31729;DHT22;18309;43.658;1.312;2024-03-07T01:55:22;7.80;99.90
31729;DHT22;18309;43.658;1.312;2024-03-07T01:57:49;7.80;99.90
31729;DHT22;18309;43.658;1.312;2024-03-07T02:00:15;7.80;99.90
31729;DHT22;18309;43.658;1.312;2024-03-07T02:02:44;7.80;99.90
31729;DHT22;18309;43.658;1.312;2024-03-07T02:05:10;7.80;99.90
31729;DHT22;18309;43.658;1.312;2024-03-07T02:07:36;7.70;99.90
31729;DHT22;18309;43.658;1.312;2024-03-07T02:10:03;7.70;99.90
31729;DHT22;18309;43.658;1.312;2024-03-07T02:12:30;7.60;99.90
31729;DHT22;18309;43.658;1.312;2024-03-07T02:14:56;7.60;99.90
31729;DHT22;18309;43.658;1.312;2024-03-07T02:17:26;7.60;99.90
31729;DHT22;18309;43.658;1.312;2024-03-07T02:19:52;7.60;99.90
31729;DHT22;18309;43.658;1.312;2024-03-07T02:22:19;7.50;99.90
31729;DHT22;18309;43.658;1.312;2024-03-07T02:24:45;7.50;99.90
31729;DHT22;18309;43.658;1.312;2024-03-07T02:27:11;7.50;99.90
31729;DHT22;18309;43.658;1.312;2024-03-07T02:29:37;7.50;99.90
31729;DHT22;18309;43.658;1.312;2024-03-07T02:32:03;7.50;99.90
31729;DHT22;18309;43.658;1.312;2024-03-07T02:34:29;7.40;99.90
31729;DHT22;18309;43.658;1.312;2024-03-07T02:36:55;7.40;99.90
31729;DHT22;18309;43.658;1.312;2024-03-07T02:39:21;7.40;99.90
31729;DHT22;18309;43.658;1.312;2024-03-07T02:41:47;7.40;99.90
31729;DHT22;18309;43.658;1.312;2024-03-07T02:44:13;7.30;99.90
31729;DHT22;18309;43.658;1.312;2024-03-07T02:46:40;7.30;99.90
31729;DHT22;18309;43.658;1.312;2024-03-07T02:49:06;7.30;99.90
31729;DHT22;18309;43.658;1.312;2024-03-07T02:51:31;7.30;99.90
31729;DHT22;18309;43.658;1.312;2024-03-07T02:53:58;7.30;99.90
31729;DHT22;18309;43.658;1.312;2024-03-07T02:56:24;7.30;99.90
31729;DHT22;18309;43.658;1.312;2024-03-07T02:58:50;7.20;99.90
31729;DHT22;18309;43.658;1.312;2024-03-07T03:01:17;7.20;99.90
31729;DHT22;18309;43.658;1.312;2024-03-07T03:03:42;7.20;99.90
31729;DHT22;18309;43.658;1.312;2024-03-07T03:06:09;7.20;99.90
31729;DHT22;18309;43.658;1.312;2024-03-07T03:08:35;7.20;99.90
31729;DHT22;18309;43.658;1.312;2024-03-07T03:11:01;7.20;99.90
31729;DHT22;18309;43.658;1.312;2024-03-07T03:13:27;7.10;99.90
31729;DHT22;18309;43.658;1.312;2024-03-07T03:15:54;7.10;99.90
31729;DHT22;18309;43.658;1.312;2024-03-07T03:18:23;7.10;99.90
31729;DHT22;18309;43.658;1.312;2024-03-07T03:20:49;7.10;99.90
31729;DHT22;18309;43.658;1.312;2024-03-07T03:23:15;7.00;99.90
31729;DHT22;18309;43.658;1.312;2024-03-07T03:25:41;7.00;99.90
31729;DHT22;18309;43.658;1.312;2024-03-07T03:28:08;7.00;99.90
31729;DHT22;18309;43.658;1.312;2024-03-07T03:30:44;7.00;99.90
31729;DHT22;18309;43.658;1.312;2024-03-07T03:33:10;6.90;99.90
31729;DHT22;18309;43.658;1.312;2024-03-07T03:35:39;6.90;99.90
31729;DHT22;18309;43.658;1.312;2024-03-07T03:38:06;6.90;99.90
31729;DHT22;18309;43.658;1.312;2024-03-07T03:40:32;6.90;99.90
31729;DHT22;18309;43.658;1.312;2024-03-07T03:42:58;6.90;99.90
31729;DHT22;18309;43.658;1.312;2024-03-07T03:45:23;6.80;99.90
31729;DHT22;18309;43.658;1.312;2024-03-07T03:47:50;6.80;99.90
31729;DHT22;18309;43.658;1.312;2024-03-07T03:50:16;6.80;99.90
31729;DHT22;18309;43.658;1.312;2024-03-07T03:52:43;6.70;99.90
31729;DHT22;18309;43.658;1.312;2024-03-07T03:55:10;6.70;99.90
31729;DHT22;18309;43.658;1.312;2024-03-07T03:57:37;6.70;99.90
31729;DHT22;18309;43.658;1.312;2024-03-07T04:00:04;6.70;99.90
31729;DHT22;18309;43.658;1.312;2024-03-07T04:02:38;6.60;99.90
31729;DHT22;18309;43.658;1.312;2024-03-07T04:05:04;6.60;99.90
31729;DHT22;18309;43.658;1.312;2024-03-07T04:07:30;6.60;99.90
31729;DHT22;18309;43.658;1.312;2024-03-07T04:09:58;6.60;99.90
31729;DHT22;18309;43.658;1.312;2024-03-07T04:12:24;6.60;99.90
31729;DHT22;18309;43.658;1.312;2024-03-07T04:14:53;6.50;99.90
31729;DHT22;18309;43.658;1.312;2024-03-07T04:17:20;6.50;99.90
31729;DHT22;18309;43.658;1.312;2024-03-07T04:19:46;6.50;99.90
31729;DHT22;18309;43.658;1.312;2024-03-07T04:22:12;6.50;99.90
31729;DHT22;18309;43.658;1.312;2024-03-07T04:24:38;6.50;99.90
31729;DHT22;18309;43.658;1.312;2024-03-07T04:27:06;6.50;99.90
31729;DHT22;18309;43.658;1.312;2024-03-07T04:29:33;6.50;99.90
31729;DHT22;18309;43.658;1.312;2024-03-07T04:31:59;6.40;99.90
31729;DHT22;18309;43.658;1.312;2024-03-07T04:34:26;6.40;99.90
31729;DHT22;18309;43.658;1.312;2024-03-07T04:36:53;6.40;99.90
31729;DHT22;18309;43.658;1.312;2024-03-07T04:39:19;6.40;99.90
31729;DHT22;18309;43.658;1.312;2024-03-07T04:42:02;6.40;99.90
31729;DHT22;18309;43.658;1.312;2024-03-07T04:44:31;6.40;99.90
31729;DHT22;18309;43.658;1.312;2024-03-07T04:46:59;6.40;99.90
31729;DHT22;18309;43.658;1.312;2024-03-07T04:49:27;6.30;99.90
31729;DHT22;18309;43.658;1.312;2024-03-07T04:51:58;6.40;99.90
31729;DHT22;18309;43.658;1.312;2024-03-07T04:54:25;6.30;99.90
31729;DHT22;18309;43.658;1.312;2024-03-07T04:56:52;6.30;99.90
31729;DHT22;18309;43.658;1.312;2024-03-07T04:59:19;6.30;99.90
31729;DHT22;18309;43.658;1.312;2024-03-07T05:01:46;6.30;99.90
31729;DHT22;18309;43.658;1.312;2024-03-07T05:04:13;6.30;99.90
31729;DHT22;18309;43.658;1.312;2024-03-07T05:06:39;6.30;99.90
31729;DHT22;18309;43.658;1.312;2024-03-07T05:09:07;6.20;99.90
31729;DHT22;18309;43.658;1.312;2024-03-07T05:11:34;6.30;99.90
31729;DHT22;18309;43.658;1.312;2024-03-07T05:14:00;6.20;99.90
31729;DHT22;18309;43.658;1.312;2024-03-07T05:16:27;6.20;99.90
31729;DHT22;18309;43.658;1.312;2024-03-07T05:18:53;6.20;99.90
31729;DHT22;18309;43.658;1.312;2024-03-07T05:21:19;6.20;99.90
31729;DHT22;18309;43.658;1.312;2024-03-07T05:24:06;6.20;99.90
31729;DHT22;18309;43.658;1.312;2024-03-07T05:26:33;6.20;99.90
31729;DHT22;18309;43.658;1.312;2024-03-07T05:29:04;6.20;99.90
31729;DHT22;18309;43.658;1.312;2024-03-07T05:31:31;6.20;99.90
31729;DHT22;18309;43.658;1.312;2024-03-07T05:34:01;6.20;99.90
31729;DHT22;18309;43.658;1.312;2024-03-07T05:36:37;6.20;99.90
31729;DHT22;18309;43.658;1.312;2024-03-07T05:39:10;6.10;99.90
31729;DHT22;18309;43.658;1.312;2024-03-07T05:41:43;6.10;99.90
31729;DHT22;18309;43.658;1.312;2024-03-07T05:44:11;6.10;99.90
31729;DHT22;18309;43.658;1.312;2024-03-07T05:46:46;6.20;99.90
31729;DHT22;18309;43.658;1.312;2024-03-07T05:49:14;6.10;99.90
31729;DHT22;18309;43.658;1.312;2024-03-07T05:51:41;6.10;99.90
31729;DHT22;18309;43.658;1.312;2024-03-07T05:54:07;6.20;99.90
31729;DHT22;18309;43.658;1.312;2024-03-07T05:56:34;6.20;99.90
31729;DHT22;18309;43.658;1.312;2024-03-07T05:59:02;6.20;99.90
31729;DHT22;18309;43.658;1.312;2024-03-07T06:01:30;6.20;99.90
31729;DHT22;18309;43.658;1.312;2024-03-07T06:04:00;6.20;99.90
31729;DHT22;18309;43.658;1.312;2024-03-07T06:06:26;6.20;99.90
31729;DHT22;18309;43.658;1.312;2024-03-07T06:08:52;6.20;99.90
31729;DHT22;18309;43.658;1.312;2024-03-07T06:11:18;6.20;99.90
31729;DHT22;18309;43.658;1.312;2024-03-07T06:13:47;6.20;99.90
31729;DHT22;18309;43.658;1.312;2024-03-07T06:16:13;6.20;99.90
31729;DHT22;18309;43.658;1.312;2024-03-07T06:18:43;6.10;99.90
31729;DHT22;18309;43.658;1.312;2024-03-07T06:21:10;6.20;99.90
31729;DHT22;18309;43.658;1.312;2024-03-07T06:23:36;6.20;99.90
31729;DHT22;18309;43.658;1.312;2024-03-07T06:26:02;6.20;99.90
31729;DHT22;18309;43.658;1.312;2024-03-07T06:28:38;6.20;99.90
31729;DHT22;18309;43.658;1.312;2024-03-07T06:31:04;6.20;99.90
31729;DHT22;18309;43.658;1.312;2024-03-07T06:33:33;6.20;99.90
31729;DHT22;18309;43.658;1.312;2024-03-07T06:35:59;6.20;99.90
31729;DHT22;18309;43.658;1.312;2024-03-07T06:38:26;6.20;99.90
31729;DHT22;18309;43.658;1.312;2024-03-07T06:40:52;6.20;99.90
31729;DHT22;18309;43.658;1.312;2024-03-07T06:43:18;6.20;99.90
31729;DHT22;18309;43.658;1.312;2024-03-07T06:45:44;6.20;99.90
31729;DHT22;18309;43.658;1.312;2024-03-07T06:48:11;6.20;99.90
31729;DHT22;18309;43.658;1.312;2024-03-07T06:50:39;6.20;99.90
31729;DHT22;18309;43.658;1.312;2024-03-07T06:53:07;6.20;99.90
31729;DHT22;18309;43.658;1.312;2024-03-07T06:55:33;6.30;99.90
31729;DHT22;18309;43.658;1.312;2024-03-07T06:58:01;6.30;99.90
31729;DHT22;18309;43.658;1.312;2024-03-07T07:00:30;6.30;99.90
31729;DHT22;18309;43.658;1.312;2024-03-07T07:03:00;6.30;99.90
31729;DHT22;18309;43.658;1.312;2024-03-07T07:05:29;6.30;99.90
31729;DHT22;18309;43.658;1.312;2024-03-07T07:07:55;6.30;99.90
31729;DHT22;18309;43.658;1.312;2024-03-07T07:10:21;6.30;99.90
31729;DHT22;18309;43.658;1.312;2024-03-07T07:12:50;6.30;99.90
31729;DHT22;18309;43.658;1.312;2024-03-07T07:15:18;6.30;99.90
31729;DHT22;18309;43.658;1.312;2024-03-07T07:17:44;6.40;99.90
31729;DHT22;18309;43.658;1.312;2024-03-07T07:20:15;6.40;99.90
31729;DHT22;18309;43.658;1.312;2024-03-07T07:22:50;6.40;99.90
31729;DHT22;18309;43.658;1.312;2024-03-07T07:25:16;6.50;99.90
31729;DHT22;18309;43.658;1.312;2024-03-07T07:27:46;6.50;99.90
31729;DHT22;18309;43.658;1.312;2024-03-07T07:30:14;6.50;99.90
31729;DHT22;18309;43.658;1.312;2024-03-07T07:32:41;6.50;99.90
31729;DHT22;18309;43.658;1.312;2024-03-07T07:35:09;6.50;99.90
31729;DHT22;18309;43.658;1.312;2024-03-07T07:37:48;6.60;99.90
31729;DHT22;18309;43.658;1.312;2024-03-07T07:40:15;6.60;99.90
31729;DHT22;18309;43.658;1.312;2024-03-07T07:42:47;6.70;99.90
31729;DHT22;18309;43.658;1.312;2024-03-07T07:45:14;6.70;99.90
31729;DHT22;18309;43.658;1.312;2024-03-07T07:47:44;6.70;99.90
31729;DHT22;18309;43.658;1.312;2024-03-07T07:50:14;6.70;99.90
31729;DHT22;18309;43.658;1.312;2024-03-07T07:52:44;6.60;99.90
31729;DHT22;18309;43.658;1.312;2024-03-07T07:55:11;6.70;99.90
31729;DHT22;18309;43.658;1.312;2024-03-07T07:57:43;6.70;99.90
31729;DHT22;18309;43.658;1.312;2024-03-07T08:00:20;6.80;99.90
31729;DHT22;18309;43.658;1.312;2024-03-07T08:02:52;6.90;99.90
31729;DHT22;18309;43.658;1.312;2024-03-07T08:05:21;7.00;99.90
31729;DHT22;18309;43.658;1.312;2024-03-07T08:07:51;7.10;99.90
31729;DHT22;18309;43.658;1.312;2024-03-07T08:10:21;7.10;99.90
31729;DHT22;18309;43.658;1.312;2024-03-07T08:12:48;7.20;99.90
31729;DHT22;18309;43.658;1.312;2024-03-07T08:15:15;7.20;99.90
31729;DHT22;18309;43.658;1.312;2024-03-07T08:17:42;7.40;99.90
31729;DHT22;18309;43.658;1.312;2024-03-07T08:20:12;7.50;99.90
31729;DHT22;18309;43.658;1.312;2024-03-07T08:22:39;7.60;99.90
31729;DHT22;18309;43.658;1.312;2024-03-07T08:25:13;7.80;99.90
31729;DHT22;18309;43.658;1.312;2024-03-07T08:27:41;7.90;99.90
31729;DHT22;18309;43.658;1.312;2024-03-07T08:30:09;8.00;99.90
31729;DHT22;18309;43.658;1.312;2024-03-07T08:32:45;8.10;99.90
31729;DHT22;18309;43.658;1.312;2024-03-07T08:35:11;8.10;99.90
31729;DHT22;18309;43.658;1.312;2024-03-07T08:37:43;8.20;99.90
31729;DHT22;18309;43.658;1.312;2024-03-07T08:40:10;8.30;99.90
31729;DHT22;18309;43.658;1.312;2024-03-07T08:42:38;8.30;99.90
31729;DHT22;18309;43.658;1.312;2024-03-07T08:45:05;8.40;99.90
31729;DHT22;18309;43.658;1.312;2024-03-07T08:47:34;8.40;99.90
31729;DHT22;18309;43.658;1.312;2024-03-07T08:50:01;8.50;99.90
31729;DHT22;18309;43.658;1.312;2024-03-07T08:52:27;8.50;99.90
31729;DHT22;18309;43.658;1.312;2024-03-07T08:54:54;8.60;99.90
31729;DHT22;18309;43.658;1.312;2024-03-07T08:57:20;8.70;99.90
31729;DHT22;18309;43.658;1.312;2024-03-07T08:59:47;8.90;99.90
31729;DHT22;18309;43.658;1.312;2024-03-07T09:02:14;9.10;99.90
31729;DHT22;18309;43.658;1.312;2024-03-07T09:04:40;9.20;99.90
31729;DHT22;18309;43.658;1.312;2024-03-07T09:07:06;9.40;99.90
31729;DHT22;18309;43.658;1.312;2024-03-07T09:09:33;9.50;99.90
31729;DHT22;18309;43.658;1.312;2024-03-07T09:12:00;9.70;99.90
31729;DHT22;18309;43.658;1.312;2024-03-07T09:14:29;9.80;99.90
31729;DHT22;18309;43.658;1.312;2024-03-07T09:16:55;9.80;99.90
31729;DHT22;18309;43.658;1.312;2024-03-07T09:19:22;9.90;99.90
31729;DHT22;18309;43.658;1.312;2024-03-07T09:21:51;9.90;99.90
31729;DHT22;18309;43.658;1.312;2024-03-07T09:24:18;10.00;99.90
31729;DHT22;18309;43.658;1.312;2024-03-07T09:26:50;10.00;99.90
31729;DHT22;18309;43.658;1.312;2024-03-07T09:29:17;10.10;99.90
31729;DHT22;18309;43.658;1.312;2024-03-07T09:31:44;10.20;99.90
31729;DHT22;18309;43.658;1.312;2024-03-07T09:34:10;10.20;99.90
31729;DHT22;18309;43.658;1.312;2024-03-07T09:36:38;10.20;99.90
31729;DHT22;18309;43.658;1.312;2024-03-07T09:39:04;10.10;99.90
31729;DHT22;18309;43.658;1.312;2024-03-07T09:41:31;10.10;99.90
31729;DHT22;18309;43.658;1.312;2024-03-07T09:43:58;10.20;99.90
31729;DHT22;18309;43.658;1.312;2024-03-07T09:46:25;10.30;99.90
31729;DHT22;18309;43.658;1.312;2024-03-07T09:48:52;10.40;99.90
31729;DHT22;18309;43.658;1.312;2024-03-07T09:51:20;10.40;99.90
31729;DHT22;18309;43.658;1.312;2024-03-07T09:53:51;10.30;99.90
31729;DHT22;18309;43.658;1.312;2024-03-07T09:56:20;10.30;99.90
31729;DHT22;18309;43.658;1.312;2024-03-07T09:58:51;10.30;99.90
31729;DHT22;18309;43.658;1.312;2024-03-07T10:01:20;10.30;99.90
31729;DHT22;18309;43.658;1.312;2024-03-07T10:03:50;10.50;99.90
31729;DHT22;18309;43.658;1.312;2024-03-07T10:06:19;10.60;99.90
31729;DHT22;18309;43.658;1.312;2024-03-07T10:08:47;10.80;99.90
31729;DHT22;18309;43.658;1.312;2024-03-07T10:11:13;10.90;99.90
31729;DHT22;18309;43.658;1.312;2024-03-07T10:13:40;11.00;99.90
31729;DHT22;18309;43.658;1.312;2024-03-07T10:16:06;11.00;99.90
31729;DHT22;18309;43.658;1.312;2024-03-07T10:18:41;11.00;99.90
31729;DHT22;18309;43.658;1.312;2024-03-07T10:21:07;11.10;99.90
31729;DHT22;18309;43.658;1.312;2024-03-07T10:23:32;11.20;99.90
31729;DHT22;18309;43.658;1.312;2024-03-07T10:26:01;11.10;99.90
31729;DHT22;18309;43.658;1.312;2024-03-07T10:28:29;11.10;99.90
31729;DHT22;18309;43.658;1.312;2024-03-07T10:30:56;11.20;99.90
31729;DHT22;18309;43.658;1.312;2024-03-07T10:33:27;11.40;99.90
31729;DHT22;18309;43.658;1.312;2024-03-07T10:35:52;11.30;99.90
31729;DHT22;18309;43.658;1.312;2024-03-07T10:38:18;11.40;99.90
31729;DHT22;18309;43.658;1.312;2024-03-07T10:40:47;11.50;99.90
31729;DHT22;18309;43.658;1.312;2024-03-07T10:43:13;11.50;99.90
31729;DHT22;18309;43.658;1.312;2024-03-07T10:45:44;11.70;99.90
31729;DHT22;18309;43.658;1.312;2024-03-07T10:48:13;11.70;99.90
31729;DHT22;18309;43.658;1.312;2024-03-07T10:51:06;11.70;99.90
31729;DHT22;18309;43.658;1.312;2024-03-07T10:53:59;11.80;99.90
31729;DHT22;18309;43.658;1.312;2024-03-07T10:59:20;11.90;99.90
31729;DHT22;18309;43.658;1.312;2024-03-07T11:04:31;12.10;99.90
31729;DHT22;18309;43.658;1.312;2024-03-07T11:06:56;12.20;99.90
31729;DHT22;18309;43.658;1.312;2024-03-07T11:09:25;12.30;99.90
31729;DHT22;18309;43.658;1.312;2024-03-07T11:11:55;12.30;99.90
31729;DHT22;18309;43.658;1.312;2024-03-07T11:14:23;12.20;99.90
31729;DHT22;18309;43.658;1.312;2024-03-07T11:16:49;12.20;99.90
31729;DHT22;18309;43.658;1.312;2024-03-07T11:21:46;12.20;99.90
31729;DHT22;18309;43.658;1.312;2024-03-07T11:24:23;12.10;99.90
31729;DHT22;18309;43.658;1.312;2024-03-07T11:26:52;12.00;99.90
31729;DHT22;18309;43.658;1.312;2024-03-07T11:29:47;12.00;99.90
31729;DHT22;18309;43.658;1.312;2024-03-07T11:32:18;12.20;99.90
31729;DHT22;18309;43.658;1.312;2024-03-07T11:34:46;12.20;99.90
31729;DHT22;18309;43.658;1.312;2024-03-07T11:37:20;12.10;99.90
31729;DHT22;18309;43.658;1.312;2024-03-07T11:39:49;12.00;99.90
31729;DHT22;18309;43.658;1.312;2024-03-07T11:44:54;12.30;99.90
31729;DHT22;18309;43.658;1.312;2024-03-07T11:47:34;12.50;99.90
31729;DHT22;18309;43.658;1.312;2024-03-07T11:50:01;12.50;99.90
31729;DHT22;18309;43.658;1.312;2024-03-07T11:52:27;12.60;99.90
31729;DHT22;18309;43.658;1.312;2024-03-07T11:54:53;12.70;99.90
31729;DHT22;18309;43.658;1.312;2024-03-07T11:57:22;12.80;99.90
31729;DHT22;18309;43.658;1.312;2024-03-07T11:59:58;12.80;99.90
31729;DHT22;18309;43.658;1.312;2024-03-07T12:02:27;12.80;99.90
31729;DHT22;18309;43.658;1.312;2024-03-07T12:04:54;12.90;99.90
31729;DHT22;18309;43.658;1.312;2024-03-07T12:07:20;13.00;99.90
31729;DHT22;18309;43.658;1.312;2024-03-07T12:09:49;13.10;99.90
31729;DHT22;18309;43.658;1.312;2024-03-07T12:12:22;13.20;99.90
31729;DHT22;18309;43.658;1.312;2024-03-07T12:14:48;13.30;99.90
31729;DHT22;18309;43.658;1.312;2024-03-07T12:17:18;13.30;99.80
31729;DHT22;18309;43.658;1.312;2024-03-07T12:19:44;13.50;99.60
31729;DHT22;18309;43.658;1.312;2024-03-07T12:22:12;13.50;99.40
31729;DHT22;18309;43.658;1.312;2024-03-07T12:24:41;13.60;99.10
31729;DHT22;18309;43.658;1.312;2024-03-07T12:27:11;13.70;99.70
31729;DHT22;18309;43.658;1.312;2024-03-07T12:29:40;13.60;99.10
31729;DHT22;18309;43.658;1.312;2024-03-07T12:32:08;13.70;99.80
31729;DHT22;18309;43.658;1.312;2024-03-07T12:34:36;13.80;98.80
31729;DHT22;18309;43.658;1.312;2024-03-07T12:37:07;13.80;99.20
31729;DHT22;18309;43.658;1.312;2024-03-07T12:39:33;14.00;99.10
31729;DHT22;18309;43.658;1.312;2024-03-07T12:42:12;14.10;99.20
31729;DHT22;18309;43.658;1.312;2024-03-07T12:44:41;14.20;99.60
31729;DHT22;18309;43.658;1.312;2024-03-07T12:47:12;14.30;98.10
31729;DHT22;18309;43.658;1.312;2024-03-07T12:49:44;14.40;98.10
31729;DHT22;18309;43.658;1.312;2024-03-07T12:52:11;14.50;98.40
31729;DHT22;18309;43.658;1.312;2024-03-07T12:54:41;14.50;97.40
31729;DHT22;18309;43.658;1.312;2024-03-07T12:57:12;14.70;98.10
31729;DHT22;18309;43.658;1.312;2024-03-07T12:59:39;14.80;97.70
31729;DHT22;18309;43.658;1.312;2024-03-07T13:02:08;14.90;97.70
31729;DHT22;18309;43.658;1.312;2024-03-07T13:04:34;15.00;97.70
31729;DHT22;18309;43.658;1.312;2024-03-07T13:07:03;15.10;96.80
31729;DHT22;18309;43.658;1.312;2024-03-07T13:09:35;15.00;97.10
31729;DHT22;18309;43.658;1.312;2024-03-07T13:12:03;15.10;96.80
31729;DHT22;18309;43.658;1.312;2024-03-07T13:14:32;15.20;96.80
31729;DHT22;18309;43.658;1.312;2024-03-07T13:17:02;15.40;97.40
31729;DHT22;18309;43.658;1.312;2024-03-07T13:19:28;15.50;96.80
31729;DHT22;18309;43.658;1.312;2024-03-07T13:21:55;15.70;96.30
31729;DHT22;18309;43.658;1.312;2024-03-07T13:24:22;15.70;96.70
31729;DHT22;18309;43.658;1.312;2024-03-07T13:26:48;15.70;96.30
31729;DHT22;18309;43.658;1.312;2024-03-07T13:29:14;15.60;96.60
31729;DHT22;18309;43.658;1.312;2024-03-07T13:31:43;15.70;96.50
31729;DHT22;18309;43.658;1.312;2024-03-07T13:34:10;15.90;96.40
31729;DHT22;18309;43.658;1.312;2024-03-07T13:36:43;16.10;95.70
31729;DHT22;18309;43.658;1.312;2024-03-07T13:39:09;16.40;95.50
31729;DHT22;18309;43.658;1.312;2024-03-07T13:41:42;16.50;95.60
31729;DHT22;18309;43.658;1.312;2024-03-07T13:44:08;16.50;95.20
31729;DHT22;18309;43.658;1.312;2024-03-07T13:46:34;16.80;95.90
31729;DHT22;18309;43.658;1.312;2024-03-07T13:49:01;17.00;95.30
31729;DHT22;18309;43.658;1.312;2024-03-07T13:51:36;17.10;94.60
31729;DHT22;18309;43.658;1.312;2024-03-07T13:54:03;17.50;94.70
31729;DHT22;18309;43.658;1.312;2024-03-07T13:59:54;17.80;93.10
31729;DHT22;18309;43.658;1.312;2024-03-07T14:02:29;18.10;92.80
31729;DHT22;18309;43.658;1.312;2024-03-07T14:13:39;19.20;91.40
31729;DHT22;18309;43.658;1.312;2024-03-07T14:28:03;24.70;73.50
31729;DHT22;18309;43.658;1.312;2024-03-07T14:30:40;26.10;72.00
31729;DHT22;18309;43.658;1.312;2024-03-07T14:33:10;25.80;71.10
31729;DHT22;18309;43.658;1.312;2024-03-07T14:38:47;26.80;70.50
31729;DHT22;18309;43.658;1.312;2024-03-07T14:41:18;27.70;68.60
31729;DHT22;18309;43.658;1.312;2024-03-07T14:43:44;28.00;67.40
31729;DHT22;18309;43.658;1.312;2024-03-07T14:46:12;27.20;70.20
31729;DHT22;18309;43.658;1.312;2024-03-07T14:48:39;27.10;68.90
31729;DHT22;18309;43.658;1.312;2024-03-07T14:51:07;26.50;69.40
31729;DHT22;18309;43.658;1.312;2024-03-07T14:53:34;27.00;69.80
31729;DHT22;18309;43.658;1.312;2024-03-07T14:55:59;26.80;68.90
31729;DHT22;18309;43.658;1.312;2024-03-07T14:58:25;26.00;70.40
31729;DHT22;18309;43.658;1.312;2024-03-07T15:00:52;25.90;72.70
31729;DHT22;18309;43.658;1.312;2024-03-07T15:03:20;25.70;72.70
31729;DHT22;18309;43.658;1.312;2024-03-07T15:05:46;25.30;74.00
31729;DHT22;18309;43.658;1.312;2024-03-07T15:08:14;24.30;77.90
31729;DHT22;18309;43.658;1.312;2024-03-07T15:10:50;22.80;80.60
31729;DHT22;18309;43.658;1.312;2024-03-07T15:13:17;21.50;84.60
31729;DHT22;18309;43.658;1.312;2024-03-07T15:15:42;20.90;86.10
31729;DHT22;18309;43.658;1.312;2024-03-07T15:18:10;20.40;88.30
31729;DHT22;18309;43.658;1.312;2024-03-07T15:20:36;20.00;89.70
31729;DHT22;18309;43.658;1.312;2024-03-07T15:23:02;20.10;89.60
31729;DHT22;18309;43.658;1.312;2024-03-07T15:25:34;19.70;90.40
31729;DHT22;18309;43.658;1.312;2024-03-07T15:28:00;19.60;90.40
31729;DHT22;18309;43.658;1.312;2024-03-07T15:30:26;19.40;90.80
31729;DHT22;18309;43.658;1.312;2024-03-07T15:33:02;19.30;91.20
31729;DHT22;18309;43.658;1.312;2024-03-07T15:35:29;19.00;91.20
31729;DHT22;18309;43.658;1.312;2024-03-07T15:37:56;18.80;91.90
31729;DHT22;18309;43.658;1.312;2024-03-07T15:40:22;18.80;92.40
31729;DHT22;18309;43.658;1.312;2024-03-07T15:42:50;18.60;92.00
31729;DHT22;18309;43.658;1.312;2024-03-07T15:45:23;18.50;92.50
31729;DHT22;18309;43.658;1.312;2024-03-07T15:47:52;18.60;92.80
31729;DHT22;18309;43.658;1.312;2024-03-07T15:50:19;18.50;93.30
31729;DHT22;18309;43.658;1.312;2024-03-07T15:52:46;18.30;93.20
31729;DHT22;18309;43.658;1.312;2024-03-07T15:55:13;18.50;93.60
31729;DHT22;18309;43.658;1.312;2024-03-07T15:57:52;18.40;93.60
31729;DHT22;18309;43.658;1.312;2024-03-07T16:00:25;17.90;93.90
31729;DHT22;18309;43.658;1.312;2024-03-07T16:02:55;17.90;94.30
31729;DHT22;18309;43.658;1.312;2024-03-07T16:05:22;17.80;94.70
31729;DHT22;18309;43.658;1.312;2024-03-07T16:07:52;17.60;94.40
31729;DHT22;18309;43.658;1.312;2024-03-07T16:10:19;17.40;95.30
31729;DHT22;18309;43.658;1.312;2024-03-07T16:12:45;17.20;95.60
31729;DHT22;18309;43.658;1.312;2024-03-07T16:15:12;17.10;96.10
31729;DHT22;18309;43.658;1.312;2024-03-07T16:17:38;17.10;96.40
31729;DHT22;18309;43.658;1.312;2024-03-07T16:20:05;16.90;96.60
31729;DHT22;18309;43.658;1.312;2024-03-07T16:22:38;16.70;97.00